Pelzer, South Carolina
Current Conditions -  °F | °C
As of 6:47 PM on Saturday 22 Nov 2014 (Local Time) from KGYH Reporting Station
Clear Clear  
Wind Chill: 46°   Ceiling: Unl
Heat Index: 46°   Visibility: 10mi
Dew Point: 14°   Wind: 0mph
Humidity: 27%   Direction: NA
Pressure: 30.34"   Gusts: NA
Location:  34.64°N, 82.46°W
Report Text: KGYH 222347Z 00000KT 10SM CLR 08/M10 A3034
Loading
Personal Weather Stations






























Interactive Weather Map New forecast layout! Learn more

10-Day Weather Forecast

Advertisements
Track Severe Weather on mobile